createdAt,value
2019-04-11T00:02:12.261Z,99.90
2019-04-11T00:04:42.046Z,99.90
2019-04-11T00:07:12.047Z,99.90
2019-04-11T00:09:47.977Z,99.90
2019-04-11T00:12:18.729Z,99.90
2019-04-11T00:14:48.403Z,99.90
2019-04-11T00:17:24.357Z,99.90
2019-04-11T00:19:53.750Z,99.90
2019-04-11T00:22:23.567Z,99.90
2019-04-11T00:25:07.357Z,99.90
2019-04-11T00:27:37.143Z,99.90
2019-04-11T00:30:08.096Z,99.90
2019-04-11T00:32:43.469Z,99.90
2019-04-11T00:35:12.379Z,99.90
2019-04-11T00:37:41.286Z,99.90
2019-04-11T00:40:17.314Z,99.90
2019-04-11T00:42:47.156Z,99.90
2019-04-11T00:45:16.193Z,99.90
2019-04-11T00:47:51.732Z,99.90
2019-04-11T00:50:21.175Z,99.90
2019-04-11T00:53:03.592Z,99.90
2019-04-11T00:55:39.744Z,99.90
2019-04-11T00:58:15.502Z,99.90
2019-04-11T01:00:45.043Z,99.90
2019-04-11T01:03:13.964Z,99.90
2019-04-11T01:05:49.915Z,99.90
2019-04-11T01:08:19.812Z,99.90
2019-04-11T01:10:49.656Z,99.90
2019-04-11T01:13:26.210Z,99.90
2019-04-11T01:16:00.739Z,99.90
2019-04-11T01:18:36.719Z,99.90
2019-04-11T01:21:06.200Z,99.90
2019-04-11T01:23:35.369Z,99.90
2019-04-11T01:26:19.155Z,99.90
2019-04-11T01:28:49.125Z,99.90
2019-04-11T01:31:19.774Z,99.90
2019-04-11T01:33:56.074Z,99.90
2019-04-11T01:36:24.879Z,99.90
2019-04-11T01:38:56.926Z,99.90
2019-04-11T01:41:32.486Z,99.90
2019-04-11T01:44:04.143Z,99.90
2019-04-11T01:46:31.972Z,99.90
2019-04-11T01:49:14.213Z,99.90
2019-04-11T01:51:43.112Z,99.90
2019-04-11T01:54:25.837Z,99.90
2019-04-11T01:57:01.508Z,99.90
2019-04-11T01:59:37.555Z,99.90
2019-04-11T02:02:28.601Z,99.90
2019-04-11T02:05:08.589Z,99.90
2019-04-11T02:07:38.515Z,99.90
2019-04-11T02:10:08.728Z,99.90
2019-04-11T02:12:44.188Z,99.90
2019-04-11T02:15:14.303Z,99.90
2019-04-11T02:17:43.334Z,99.90
2019-04-11T02:20:18.993Z,99.90
2019-04-11T02:22:52.869Z,99.90
2019-04-11T02:25:36.737Z,99.90
2019-04-11T02:28:13.374Z,99.90
2019-04-11T02:30:55.795Z,99.90
2019-04-11T02:33:26.407Z,99.90
2019-04-11T02:35:56.714Z,99.90
2019-04-11T02:38:34.354Z,99.90
2019-04-11T02:41:05.908Z,99.90
2019-04-11T02:43:36.272Z,99.90
2019-04-11T02:46:22.101Z,99.90
2019-04-11T02:48:42.646Z,99.90
2019-04-11T02:51:12.369Z,99.90
2019-04-11T02:53:49.549Z,99.90
2019-04-11T02:56:27.367Z,99.90
2019-04-11T02:59:04.645Z,99.90
2019-04-11T03:01:34.149Z,99.90
2019-04-11T03:04:04.903Z,99.90
2019-04-11T03:06:43.697Z,99.90
2019-04-11T03:09:13.284Z,99.90
2019-04-11T03:11:44.633Z,99.90
2019-04-11T03:14:20.681Z,99.90
2019-04-11T03:16:59.716Z,99.90
2019-04-11T03:19:35.731Z,99.90
2019-04-11T03:21:58.833Z,99.90
2019-04-11T03:24:29.462Z,99.90
2019-04-11T03:27:04.085Z,99.90
2019-04-11T03:29:43.217Z,99.90
2019-04-11T03:32:49.269Z,99.90
2019-04-11T03:35:51.862Z,99.90
2019-04-11T03:37:49.778Z,99.90
2019-04-11T03:40:14.683Z,99.90
2019-04-11T03:42:41.721Z,99.90
2019-04-11T03:45:26.367Z,99.90
2019-04-11T03:47:45.851Z,99.90
2019-04-11T03:50:09.316Z,99.90
2019-04-11T03:52:42.924Z,99.90
2019-04-11T03:55:19.335Z,99.90
2019-04-11T03:58:03.670Z,99.90
2019-04-11T04:00:36.482Z,99.90
2019-04-11T04:03:05.869Z,99.90
2019-04-11T04:05:43.406Z,99.90
2019-04-11T04:08:13.060Z,99.90
2019-04-11T04:11:09.692Z,99.90
2019-04-11T04:13:42.852Z,99.90
2019-04-11T04:16:39.856Z,99.90
2019-04-11T04:19:32.836Z,99.90
2019-04-11T04:22:31.534Z,99.90
2019-04-11T04:25:01.391Z,99.90
2019-04-11T04:27:32.716Z,99.90
2019-04-11T04:30:18.067Z,99.90
2019-04-11T04:32:47.129Z,99.90
2019-04-11T04:35:19.688Z,99.90
2019-04-11T04:37:56.990Z,99.90
2019-04-11T04:40:47.860Z,99.90
2019-04-11T04:43:08.202Z,99.90
2019-04-11T04:45:58.285Z,99.90
2019-04-11T04:48:11.188Z,99.90
2019-04-11T04:50:44.859Z,99.90
2019-04-11T04:53:15.888Z,99.90
2019-04-11T04:55:57.881Z,99.90
2019-04-11T04:58:33.989Z,99.90
2019-04-11T05:01:12.526Z,99.90
2019-04-11T05:03:42.351Z,99.90
2019-04-11T05:06:11.987Z,99.90
2019-04-11T05:08:49.196Z,99.90
2019-04-11T05:14:27.525Z,99.90
2019-04-11T05:16:56.465Z,99.90
2019-04-11T05:19:25.541Z,99.90
2019-04-11T05:22:01.843Z,99.90
2019-04-11T05:24:30.787Z,99.90
2019-04-11T05:26:59.927Z,99.90
2019-04-11T05:29:35.828Z,99.90
2019-04-11T05:32:11.576Z,99.90
2019-04-11T05:34:47.221Z,99.90
2019-04-11T05:37:15.989Z,99.90
2019-04-11T05:39:44.979Z,99.90
2019-04-11T05:42:24.927Z,99.90
2019-04-11T05:44:51.721Z,99.90
2019-04-11T05:47:21.417Z,99.90
2019-04-11T05:50:07.129Z,99.90
2019-04-11T05:52:34.194Z,99.90
2019-04-11T05:55:13.771Z,99.90
2019-04-11T05:57:44.903Z,99.90
2019-04-11T06:00:46.619Z,99.90
2019-04-11T06:03:15.588Z,99.90
2019-04-11T06:05:59.855Z,99.90
2019-04-11T06:08:30.417Z,99.90
2019-04-11T06:11:24.134Z,99.90
2019-04-11T06:14:13.827Z,99.90
2019-04-11T06:16:59.187Z,99.90
2019-04-11T06:19:53.545Z,99.90
2019-04-11T06:22:29.722Z,99.90
2019-04-11T06:25:20.173Z,99.90
2019-04-11T06:28:13.852Z,99.90
2019-04-11T06:31:20.247Z,99.90
2019-04-11T06:34:05.739Z,99.90
2019-04-11T06:37:03.482Z,99.90
2019-04-11T06:39:47.359Z,99.90
2019-04-11T06:42:31.843Z,99.90
2019-04-11T06:45:25.591Z,99.90
2019-04-11T06:48:19.230Z,99.90
2019-04-11T06:51:03.815Z,99.90
2019-04-11T06:53:36.527Z,99.90
2019-04-11T06:56:25.350Z,99.90
2019-04-11T06:58:58.067Z,99.90
2019-04-11T07:01:36.234Z,99.90
2019-04-11T07:04:13.258Z,99.90
2019-04-11T07:06:51.743Z,99.90
2019-04-11T07:09:37.211Z,99.90
2019-04-11T07:12:20.179Z,99.90
2019-04-11T07:15:14.107Z,99.90
2019-04-11T07:18:14.107Z,99.90
2019-04-11T07:21:02.894Z,99.90
2019-04-11T07:23:57.613Z,99.90
2019-04-11T07:26:52.178Z,99.90
2019-04-11T07:29:42.217Z,99.90
2019-04-11T07:32:16.161Z,99.90
2019-04-11T07:35:15.708Z,99.90
2019-04-11T07:37:47.433Z,99.90
2019-04-11T07:40:41.180Z,99.90
2019-04-11T07:43:22.539Z,99.90
2019-04-11T07:46:15.524Z,99.90
2019-04-11T07:48:44.731Z,99.90
2019-04-11T07:51:48.712Z,99.90
2019-04-11T07:54:25.782Z,99.90
2019-04-11T07:57:20.457Z,99.90
2019-04-11T07:59:55.790Z,99.90
2019-04-11T08:02:49.619Z,99.90
2019-04-11T08:05:34.878Z,99.90
2019-04-11T08:08:21.779Z,99.90
2019-04-11T08:11:00.794Z,99.90
2019-04-11T08:14:08.400Z,99.90
2019-04-11T08:16:59.442Z,99.90
2019-04-11T08:19:53.925Z,99.90
2019-04-11T08:22:32.908Z,99.90
2019-04-11T08:25:33.589Z,99.90
2019-04-11T08:28:07.498Z,99.90
2019-04-11T08:31:03.380Z,99.90
2019-04-11T08:33:33.008Z,99.90
2019-04-11T08:36:47.692Z,99.90
2019-04-11T08:39:21.212Z,99.90
2019-04-11T08:42:10.783Z,99.90
2019-04-11T08:44:46.452Z,99.90
2019-04-11T08:47:24.519Z,99.90
2019-04-11T08:49:57.063Z,99.90
2019-04-11T08:52:48.525Z,99.90
2019-04-11T08:55:23.744Z,99.90
2019-04-11T08:58:03.114Z,99.90
2019-04-11T09:00:42.280Z,99.20
2019-04-11T09:03:31.452Z,95.70
2019-04-11T09:06:04.347Z,96.80
2019-04-11T09:08:58.988Z,94.10
2019-04-11T09:11:32.960Z,97.80
2019-04-11T09:14:40.581Z,93.90
2019-04-11T09:17:21.470Z,94.10
2019-04-11T09:20:15.686Z,91.90
2019-04-11T09:23:02.082Z,89.20
2019-04-11T09:25:56.476Z,84.70
2019-04-11T09:28:37.715Z,89.60
2019-04-11T09:31:35.866Z,90.90
2019-04-11T09:34:35.888Z,90.70
2019-04-11T09:37:22.118Z,82.70
2019-04-11T09:40:10.056Z,87.60
2019-04-11T09:43:24.014Z,86.10
2019-04-11T09:46:14.735Z,85.50
2019-04-11T09:49:02.447Z,86.60
2019-04-11T09:51:58.315Z,88.80
2019-04-11T09:54:56.785Z,89.80
2019-04-11T09:57:29.393Z,91.10
2019-04-11T10:00:27.387Z,90.20
2019-04-11T10:03:08.754Z,90.40
2019-04-11T10:06:01.345Z,90.60
2019-04-11T10:08:58.161Z,90.80
2019-04-11T10:12:02.410Z,88.10
2019-04-11T10:14:39.718Z,89.30
2019-04-11T10:17:40.168Z,90.80
2019-04-11T10:20:11.259Z,90.00
2019-04-11T10:23:04.946Z,88.10
2019-04-11T10:25:53.726Z,88.60
2019-04-11T10:28:51.773Z,86.70
2019-04-11T10:31:22.370Z,85.90
2019-04-11T10:34:15.844Z,86.90
2019-04-11T10:37:10.177Z,87.70
2019-04-11T10:40:20.744Z,87.70
2019-04-11T10:42:49.330Z,88.70
2019-04-11T10:45:41.043Z,86.30
2019-04-11T10:48:09.778Z,81.90
2019-04-11T10:51:04.507Z,87.00
2019-04-11T10:53:33.800Z,86.10
2019-04-11T10:56:28.505Z,88.50
2019-04-11T10:58:59.534Z,84.20
2019-04-11T11:01:48.495Z,87.10
2019-04-11T11:04:36.788Z,90.00
2019-04-11T11:07:18.429Z,89.20
2019-04-11T11:09:54.765Z,90.40
2019-04-11T11:13:02.936Z,91.00
2019-04-11T11:15:47.562Z,89.60
2019-04-11T11:19:15.014Z,90.50
2019-04-11T11:21:25.003Z,90.40
2019-04-11T11:24:16.167Z,90.90
2019-04-11T11:26:44.898Z,90.50
2019-04-11T11:29:51.664Z,91.30
2019-04-11T11:32:32.136Z,91.00
2019-04-11T11:35:29.754Z,91.00
2019-04-11T11:38:09.277Z,91.30
2019-04-11T11:41:05.953Z,92.20
2019-04-11T11:43:35.198Z,92.80
2019-04-11T11:46:34.264Z,92.90
2019-04-11T11:49:12.111Z,93.90
2019-04-11T11:52:15.357Z,94.00
2019-04-11T11:54:48.154Z,94.70
2019-04-11T11:57:29.525Z,94.00
2019-04-11T12:00:10.046Z,93.70
2019-04-11T12:02:51.890Z,93.50
2019-04-11T12:05:26.381Z,93.50
2019-04-11T12:08:14.749Z,94.30
2019-04-11T12:10:45.885Z,94.80
2019-04-11T12:13:53.774Z,94.20
2019-04-11T12:16:37.300Z,94.20
2019-04-11T12:19:52.352Z,94.60
2019-04-11T12:22:18.005Z,93.40
2019-04-11T12:25:10.069Z,93.40
2019-04-11T12:27:56.584Z,94.70
2019-04-11T12:30:53.120Z,93.90
2019-04-11T12:33:41.615Z,93.10
2019-04-11T12:36:50.851Z,92.50
2019-04-11T12:39:45.661Z,92.80
2019-04-11T12:42:31.212Z,92.50
2019-04-11T12:45:17.717Z,90.60
2019-04-11T12:47:55.852Z,91.80
2019-04-11T12:50:52.534Z,91.30
2019-04-11T12:53:30.195Z,91.10
2019-04-11T12:56:16.395Z,90.90
2019-04-11T12:58:57.610Z,91.90
2019-04-11T13:01:51.752Z,91.00
2019-04-11T13:04:37.851Z,91.00
2019-04-11T13:07:34.622Z,91.60
2019-04-11T13:10:24.044Z,91.80
2019-04-11T13:13:17.941Z,92.40
2019-04-11T13:16:11.368Z,91.80
2019-04-11T13:19:03.765Z,93.00
2019-04-11T13:21:52.164Z,92.00
2019-04-11T13:24:44.428Z,92.20
2019-04-11T13:27:22.682Z,91.00
2019-04-11T13:30:48.126Z,92.80
2019-04-11T13:33:26.628Z,92.80
2019-04-11T13:36:15.035Z,91.70
2019-04-11T13:38:55.733Z,92.40
2019-04-11T13:41:39.837Z,92.40
2019-04-11T13:44:34.664Z,91.50
2019-04-11T13:47:27.633Z,92.10
2019-04-11T13:50:16.307Z,92.30
2019-04-11T13:52:47.150Z,92.80
2019-04-11T13:55:30.913Z,93.50
2019-04-11T13:58:12.150Z,92.80
2019-04-11T14:01:01.099Z,93.50
2019-04-11T14:03:49.005Z,92.30
2019-04-11T14:06:29.358Z,92.20
2019-04-11T14:09:07.084Z,92.20
2019-04-11T14:11:44.468Z,93.60
2019-04-11T14:14:22.274Z,93.10
2019-04-11T14:17:15.461Z,93.20
2019-04-11T14:20:01.595Z,92.90
2019-04-11T14:22:43.687Z,93.30
2019-04-11T14:25:33.788Z,93.70
2019-04-11T14:28:11.186Z,94.30
2019-04-11T14:30:53.369Z,93.80
2019-04-11T14:33:36.801Z,94.10
2019-04-11T14:36:33.523Z,94.10
2019-04-11T14:39:08.450Z,94.10
2019-04-11T14:41:53.167Z,94.20
2019-04-11T14:44:35.875Z,94.70
2019-04-11T14:47:29.469Z,95.30
2019-04-11T14:50:11.176Z,94.90
2019-04-11T14:53:04.217Z,95.00
2019-04-11T14:55:42.964Z,95.50
2019-04-11T14:58:41.307Z,96.40
2019-04-11T15:01:23.591Z,96.40
2019-04-11T15:04:13.435Z,96.70
2019-04-11T15:06:51.918Z,96.30
2019-04-11T15:09:39.732Z,97.20
2019-04-11T15:12:30.061Z,97.50
2019-04-11T15:15:24.071Z,97.20
2019-04-11T15:18:05.002Z,97.50
2019-04-11T15:20:55.145Z,96.90
2019-04-11T15:23:49.518Z,97.90
2019-04-11T15:26:36.659Z,98.10
2019-04-11T15:29:16.132Z,98.60
2019-04-11T15:32:02.168Z,98.80
2019-04-11T15:34:49.619Z,99.00
2019-04-11T15:37:40.272Z,99.90
2019-04-11T15:40:17.890Z,99.90
2019-04-11T15:43:05.501Z,99.90
2019-04-11T15:45:54.275Z,99.90
2019-04-11T15:48:35.976Z,99.90
2019-04-11T15:51:30.630Z,99.90
2019-04-11T15:54:15.637Z,99.90
2019-04-11T15:57:03.644Z,99.90
2019-04-11T15:59:57.465Z,99.90
2019-04-11T16:02:55.196Z,99.90
2019-04-11T16:05:49.529Z,99.90
2019-04-11T16:08:49.284Z,99.90
2019-04-11T16:11:52.456Z,99.90
2019-04-11T16:14:33.303Z,99.90
2019-04-11T16:17:36.226Z,99.90
2019-04-11T16:20:21.501Z,99.90
2019-04-11T16:23:02.644Z,99.90
2019-04-11T16:25:37.847Z,99.90
2019-04-11T16:28:38.232Z,99.90
2019-04-11T16:31:15.789Z,99.90
2019-04-11T16:33:57.736Z,99.90
2019-04-11T16:36:49.025Z,99.90
2019-04-11T16:39:33.552Z,99.90
2019-04-11T16:42:19.135Z,99.90
2019-04-11T16:45:02.703Z,99.90
2019-04-11T16:48:25.464Z,99.90
2019-04-11T16:50:52.545Z,99.90
2019-04-11T16:53:21.272Z,99.90
2019-04-11T16:55:58.187Z,99.90
2019-04-11T16:58:27.013Z,99.90
2019-04-11T17:00:55.892Z,99.90
2019-04-11T17:03:31.127Z,99.90
2019-04-11T17:06:06.766Z,99.90
2019-04-11T17:08:48.361Z,99.90
2019-04-11T17:11:19.242Z,99.90
2019-04-11T17:13:48.077Z,99.90
2019-04-11T17:16:24.455Z,99.90
2019-04-11T17:18:53.281Z,99.90
2019-04-11T17:21:23.304Z,99.90
2019-04-11T17:23:59.375Z,99.90
2019-04-11T17:26:28.146Z,99.90
2019-04-11T17:28:56.988Z,99.90
2019-04-11T17:31:31.820Z,99.90
2019-04-11T17:34:07.258Z,99.90
2019-04-11T17:36:48.450Z,99.90
2019-04-11T17:39:17.243Z,99.90
2019-04-11T17:41:47.329Z,99.90
2019-04-11T17:44:23.038Z,99.90
2019-04-11T17:46:51.731Z,99.90
2019-04-11T17:49:35.548Z,99.90
2019-04-11T17:52:06.395Z,99.90
2019-04-11T17:54:35.093Z,99.90
2019-04-11T17:57:16.587Z,99.90
2019-04-11T17:59:45.308Z,99.90
2019-04-11T18:02:23.384Z,99.90
2019-04-11T18:04:54.420Z,99.90
2019-04-11T18:07:23.204Z,99.90
2019-04-11T18:09:58.841Z,99.90
2019-04-11T18:12:27.560Z,99.90
2019-04-11T18:14:56.571Z,99.90
2019-04-11T18:17:34.919Z,99.90
2019-04-11T18:20:06.884Z,99.90
2019-04-11T18:22:50.105Z,99.90
2019-04-11T18:25:20.795Z,99.90
2019-04-11T18:27:56.452Z,99.90
2019-04-11T18:30:25.288Z,99.90
2019-04-11T18:33:07.941Z,99.90
2019-04-11T18:35:44.695Z,99.90
2019-04-11T18:38:22.195Z,99.90
2019-04-11T18:40:52.427Z,99.90
2019-04-11T18:43:25.472Z,99.90
2019-04-11T18:46:01.433Z,99.90
2019-04-11T18:48:30.746Z,99.90
2019-04-11T18:51:12.955Z,99.90
2019-04-11T18:53:44.506Z,99.90
2019-04-11T18:56:14.719Z,99.90
2019-04-11T18:58:50.123Z,99.90
2019-04-11T19:01:19.663Z,99.90
2019-04-11T19:03:48.640Z,99.90
2019-04-11T19:06:28.082Z,99.90
2019-04-11T19:08:56.824Z,99.90
2019-04-11T19:11:25.743Z,99.90
2019-04-11T19:14:01.131Z,99.90
2019-04-11T19:16:30.349Z,99.90
2019-04-11T19:19:02.007Z,99.90
2019-04-11T19:21:37.722Z,99.90
2019-04-11T19:24:09.075Z,99.90
2019-04-11T19:26:50.813Z,99.90
2019-04-11T19:29:25.022Z,99.90
2019-04-11T19:32:17.315Z,99.90
2019-04-11T19:34:46.199Z,99.90
2019-04-11T19:37:14.979Z,99.90
2019-04-11T19:39:52.483Z,99.90
2019-04-11T19:42:23.753Z,99.90
2019-04-11T19:44:52.015Z,99.90
2019-04-11T19:47:27.581Z,99.90
2019-04-11T19:49:58.590Z,99.90
2019-04-11T19:52:45.729Z,99.90
2019-04-11T19:55:34.523Z,99.90
2019-04-11T19:58:08.132Z,99.90
2019-04-11T20:00:37.005Z,99.90
2019-04-11T20:03:08.344Z,99.90
2019-04-11T20:05:43.244Z,99.90
2019-04-11T20:08:12.420Z,99.90
2019-04-11T20:10:41.381Z,99.90
2019-04-11T20:13:17.186Z,99.90
2019-04-11T20:15:46.286Z,99.90
2019-04-11T20:18:15.141Z,99.90
2019-04-11T20:20:52.137Z,99.90
2019-04-11T20:23:20.657Z,99.90
2019-04-11T20:25:50.004Z,99.90
2019-04-11T20:28:26.823Z,99.90
2019-04-11T20:31:02.707Z,99.90
2019-04-11T20:33:45.259Z,99.90
2019-04-11T20:36:14.058Z,99.90
2019-04-11T20:38:44.773Z,99.90
2019-04-11T20:41:22.989Z,99.90
2019-04-11T20:43:50.471Z,99.90
2019-04-11T20:46:19.273Z,99.90
2019-04-11T20:48:54.692Z,99.90
2019-04-11T20:51:23.512Z,99.90
2019-04-11T20:54:07.938Z,99.90
2019-04-11T20:56:40.463Z,99.90
2019-04-11T20:59:16.417Z,99.90
2019-04-11T21:01:45.122Z,99.90
2019-04-11T21:04:13.836Z,99.90
2019-04-11T21:06:49.187Z,99.90
2019-04-11T21:09:18.017Z,99.90
2019-04-11T21:11:46.829Z,99.90
2019-04-11T21:14:22.410Z,99.90
2019-04-11T21:16:51.164Z,99.90
2019-04-11T21:19:20.056Z,99.90
2019-04-11T21:21:55.877Z,99.90
2019-04-11T21:24:30.492Z,99.90
2019-04-11T21:26:59.244Z,99.90
2019-04-11T21:29:33.925Z,99.90
2019-04-11T21:32:08.977Z,99.90
2019-04-11T21:34:50.192Z,99.90
2019-04-11T21:37:18.896Z,99.90
2019-04-11T21:39:47.729Z,99.90
2019-04-11T21:42:22.649Z,99.90
2019-04-11T21:44:51.584Z,99.90
2019-04-11T21:47:20.427Z,99.90
2019-04-11T21:49:55.484Z,99.90
2019-04-11T21:52:24.261Z,99.90
2019-04-11T21:55:06.710Z,99.90
2019-04-11T21:57:35.427Z,99.90
2019-04-11T22:00:08.392Z,99.90
2019-04-11T22:02:43.707Z,99.90
2019-04-11T22:05:15.844Z,99.90
2019-04-11T22:07:44.461Z,99.90
2019-04-11T22:10:20.043Z,99.90
2019-04-11T22:12:48.875Z,99.90
2019-04-11T22:15:17.820Z,99.90
2019-04-11T22:17:53.104Z,99.90
2019-04-11T22:20:21.947Z,99.90
2019-04-11T22:22:50.805Z,99.90
2019-04-11T22:25:26.344Z,99.90
2019-04-11T22:27:55.397Z,99.90
2019-04-11T22:30:25.434Z,99.90
2019-04-11T22:33:05.926Z,99.90
2019-04-11T22:35:42.041Z,99.90
2019-04-11T22:38:17.715Z,99.90
2019-04-11T22:40:46.999Z,99.90
2019-04-11T22:43:24.219Z,99.90
2019-04-11T22:45:53.212Z,99.90
2019-04-11T22:48:22.042Z,99.90
2019-04-11T22:50:51.060Z,99.90
2019-04-11T22:53:27.364Z,99.90
2019-04-11T22:56:02.554Z,99.90
2019-04-11T22:58:37.784Z,99.90
2019-04-11T23:01:06.714Z,99.90
2019-04-11T23:03:40.163Z,99.90
2019-04-11T23:06:17.206Z,99.90
2019-04-11T23:08:48.628Z,99.90
2019-04-11T23:11:17.584Z,99.90
2019-04-11T23:13:52.766Z,99.90
2019-04-11T23:16:21.488Z,99.90
2019-04-11T23:18:50.202Z,99.90
2019-04-11T23:21:26.341Z,99.90
2019-04-11T23:23:56.374Z,99.90
2019-04-11T23:26:25.564Z,99.90
2019-04-11T23:29:02.344Z,99.90
2019-04-11T23:31:32.207Z,99.90
2019-04-11T23:34:16.937Z,99.90
2019-04-11T23:36:53.432Z,99.90
2019-04-11T23:39:30.453Z,99.90
2019-04-11T23:42:00.716Z,99.90
2019-04-11T23:44:29.512Z,99.90
2019-04-11T23:47:04.335Z,99.90
2019-04-11T23:49:33.084Z,99.90
2019-04-11T23:52:01.798Z,99.90
2019-04-11T23:54:36.606Z,99.90
2019-04-11T23:57:12.458Z,99.90
2019-04-11T23:59:48.062Z,99.90
